sensor_id;sensor_type;location;lat;lon;timestamp;temperature;humidity
28075;DHT22;15385;51.088;6.572;2023-04-01T00:00:37;11.40;99.90
28075;DHT22;15385;51.088;6.572;2023-04-01T00:03:07;11.40;99.90
28075;DHT22;15385;51.088;6.572;2023-04-01T00:05:38;11.40;99.90
28075;DHT22;15385;51.088;6.572;2023-04-01T00:08:08;11.40;99.90
28075;DHT22;15385;51.088;6.572;2023-04-01T00:10:39;11.40;99.90
28075;DHT22;15385;51.088;6.572;2023-04-01T00:13:10;11.30;99.90
28075;DHT22;15385;51.088;6.572;2023-04-01T00:15:41;11.30;99.90
28075;DHT22;15385;51.088;6.572;2023-04-01T00:18:12;11.30;99.90
28075;DHT22;15385;51.088;6.572;2023-04-01T00:20:48;11.30;99.90
28075;DHT22;15385;51.088;6.572;2023-04-01T00:23:20;11.30;99.90
28075;DHT22;15385;51.088;6.572;2023-04-01T00:25:51;11.30;99.90
28075;DHT22;15385;51.088;6.572;2023-04-01T00:28:21;11.20;99.90
28075;DHT22;15385;51.088;6.572;2023-04-01T00:30:52;11.30;99.90
28075;DHT22;15385;51.088;6.572;2023-04-01T00:33:23;11.20;99.90
28075;DHT22;15385;51.088;6.572;2023-04-01T00:35:53;11.20;99.90
28075;DHT22;15385;51.088;6.572;2023-04-01T00:38:24;11.30;99.90
28075;DHT22;15385;51.088;6.572;2023-04-01T00:40:57;11.30;99.90
28075;DHT22;15385;51.088;6.572;2023-04-01T00:43:28;11.20;99.90
28075;DHT22;15385;51.088;6.572;2023-04-01T00:45:59;11.20;99.90
28075;DHT22;15385;51.088;6.572;2023-04-01T00:48:33;11.20;99.90
28075;DHT22;15385;51.088;6.572;2023-04-01T00:51:05;11.20;99.90
28075;DHT22;15385;51.088;6.572;2023-04-01T00:53:41;11.20;99.90
28075;DHT22;15385;51.088;6.572;2023-04-01T00:56:14;11.20;99.90
28075;DHT22;15385;51.088;6.572;2023-04-01T00:58:54;11.20;99.90
28075;DHT22;15385;51.088;6.572;2023-04-01T01:01:29;11.20;99.90
28075;DHT22;15385;51.088;6.572;2023-04-01T01:04:00;11.30;99.90
28075;DHT22;15385;51.088;6.572;2023-04-01T01:12:24;11.30;99.90
28075;DHT22;15385;51.088;6.572;2023-04-01T01:17:50;11.20;99.90
28075;DHT22;15385;51.088;6.572;2023-04-01T01:37:25;11.20;99.90
28075;DHT22;15385;51.088;6.572;2023-04-01T01:40:02;11.20;99.90
28075;DHT22;15385;51.088;6.572;2023-04-01T01:42:36;11.20;99.90
28075;DHT22;15385;51.088;6.572;2023-04-01T01:45:08;11.20;99.90
28075;DHT22;15385;51.088;6.572;2023-04-01T01:47:40;11.20;99.90
28075;DHT22;15385;51.088;6.572;2023-04-01T01:50:12;11.20;99.90
28075;DHT22;15385;51.088;6.572;2023-04-01T01:52:44;11.20;99.90
28075;DHT22;15385;51.088;6.572;2023-04-01T01:55:41;11.20;99.90
28075;DHT22;15385;51.088;6.572;2023-04-01T01:58:19;11.20;99.90
28075;DHT22;15385;51.088;6.572;2023-04-01T02:01:14;11.10;99.90
28075;DHT22;15385;51.088;6.572;2023-04-01T02:03:46;11.10;99.90
28075;DHT22;15385;51.088;6.572;2023-04-01T02:06:21;11.00;99.90
28075;DHT22;15385;51.088;6.572;2023-04-01T02:08:56;11.00;99.90
28075;DHT22;15385;51.088;6.572;2023-04-01T02:11:36;11.00;99.90
28075;DHT22;15385;51.088;6.572;2023-04-01T02:14:23;11.00;99.90
28075;DHT22;15385;51.088;6.572;2023-04-01T02:16:59;11.00;99.90
28075;DHT22;15385;51.088;6.572;2023-04-01T02:19:38;11.00;99.90
28075;DHT22;15385;51.088;6.572;2023-04-01T02:22:14;11.00;99.90
28075;DHT22;15385;51.088;6.572;2023-04-01T02:24:46;11.00;99.90
28075;DHT22;15385;51.088;6.572;2023-04-01T02:27:18;11.00;99.90
28075;DHT22;15385;51.088;6.572;2023-04-01T02:29:51;11.10;99.90
28075;DHT22;15385;51.088;6.572;2023-04-01T02:32:22;11.00;99.90
28075;DHT22;15385;51.088;6.572;2023-04-01T02:34:53;11.10;99.90
28075;DHT22;15385;51.088;6.572;2023-04-01T02:37:24;11.10;99.90
28075;DHT22;15385;51.088;6.572;2023-04-01T02:40:00;11.10;99.90
28075;DHT22;15385;51.088;6.572;2023-04-01T02:42:30;11.10;99.90
28075;DHT22;15385;51.088;6.572;2023-04-01T02:45:01;11.10;99.90
28075;DHT22;15385;51.088;6.572;2023-04-01T02:47:32;11.10;99.90
28075;DHT22;15385;51.088;6.572;2023-04-01T02:50:03;11.10;99.90
28075;DHT22;15385;51.088;6.572;2023-04-01T02:52:34;11.10;99.90
28075;DHT22;15385;51.088;6.572;2023-04-01T02:55:06;11.10;99.90
28075;DHT22;15385;51.088;6.572;2023-04-01T02:57:37;11.10;99.90
28075;DHT22;15385;51.088;6.572;2023-04-01T03:00:08;11.10;99.90
28075;DHT22;15385;51.088;6.572;2023-04-01T03:02:41;11.00;99.90
28075;DHT22;15385;51.088;6.572;2023-04-01T03:05:12;11.00;99.90
28075;DHT22;15385;51.088;6.572;2023-04-01T03:07:43;11.00;99.90
28075;DHT22;15385;51.088;6.572;2023-04-01T03:10:14;11.00;99.90
28075;DHT22;15385;51.088;6.572;2023-04-01T03:12:44;11.00;99.90
28075;DHT22;15385;51.088;6.572;2023-04-01T03:15:15;11.00;99.90
28075;DHT22;15385;51.088;6.572;2023-04-01T03:17:46;11.00;99.90
28075;DHT22;15385;51.088;6.572;2023-04-01T03:20:17;10.90;99.90
28075;DHT22;15385;51.088;6.572;2023-04-01T03:22:48;11.00;99.90
28075;DHT22;15385;51.088;6.572;2023-04-01T03:25:18;11.00;99.90
28075;DHT22;15385;51.088;6.572;2023-04-01T03:27:49;11.00;99.90
28075;DHT22;15385;51.088;6.572;2023-04-01T03:30:19;11.00;99.90
28075;DHT22;15385;51.088;6.572;2023-04-01T03:32:50;11.00;99.90
28075;DHT22;15385;51.088;6.572;2023-04-01T03:35:21;11.00;99.90
28075;DHT22;15385;51.088;6.572;2023-04-01T03:37:53;11.00;99.90
28075;DHT22;15385;51.088;6.572;2023-04-01T03:40:24;10.90;99.90
28075;DHT22;15385;51.088;6.572;2023-04-01T03:42:56;11.00;99.90
28075;DHT22;15385;51.088;6.572;2023-04-01T03:45:27;11.00;99.90
28075;DHT22;15385;51.088;6.572;2023-04-01T03:47:57;11.00;99.90
28075;DHT22;15385;51.088;6.572;2023-04-01T03:50:28;11.00;99.90
28075;DHT22;15385;51.088;6.572;2023-04-01T03:52:58;11.00;99.90
28075;DHT22;15385;51.088;6.572;2023-04-01T03:55:29;11.00;99.90
28075;DHT22;15385;51.088;6.572;2023-04-01T03:57:59;11.00;99.90
28075;DHT22;15385;51.088;6.572;2023-04-01T04:00:32;11.00;99.90
28075;DHT22;15385;51.088;6.572;2023-04-01T04:03:03;11.00;99.90
28075;DHT22;15385;51.088;6.572;2023-04-01T04:05:33;11.00;99.90
28075;DHT22;15385;51.088;6.572;2023-04-01T04:08:04;10.90;99.90
28075;DHT22;15385;51.088;6.572;2023-04-01T04:10:35;11.00;99.90
28075;DHT22;15385;51.088;6.572;2023-04-01T04:13:05;11.00;99.90
28075;DHT22;15385;51.088;6.572;2023-04-01T04:15:36;11.00;99.90
28075;DHT22;15385;51.088;6.572;2023-04-01T04:18:06;11.00;99.90
28075;DHT22;15385;51.088;6.572;2023-04-01T04:20:44;11.00;99.90
28075;DHT22;15385;51.088;6.572;2023-04-01T04:23:16;11.00;99.90
28075;DHT22;15385;51.088;6.572;2023-04-01T04:25:57;11.00;99.90
28075;DHT22;15385;51.088;6.572;2023-04-01T04:28:29;11.00;99.90
28075;DHT22;15385;51.088;6.572;2023-04-01T04:31:00;11.10;99.90
28075;DHT22;15385;51.088;6.572;2023-04-01T04:33:31;11.10;99.90
28075;DHT22;15385;51.088;6.572;2023-04-01T04:36:02;11.10;99.90
28075;DHT22;15385;51.088;6.572;2023-04-01T04:38:33;11.10;99.90
28075;DHT22;15385;51.088;6.572;2023-04-01T04:41:17;11.10;99.90
28075;DHT22;15385;51.088;6.572;2023-04-01T04:43:55;11.00;99.90
28075;DHT22;15385;51.088;6.572;2023-04-01T04:46:26;11.00;99.90
28075;DHT22;15385;51.088;6.572;2023-04-01T04:48:56;11.10;99.90
28075;DHT22;15385;51.088;6.572;2023-04-01T04:51:27;11.10;99.90
28075;DHT22;15385;51.088;6.572;2023-04-01T04:53:58;11.10;99.90
28075;DHT22;15385;51.088;6.572;2023-04-01T04:56:28;11.10;99.90
28075;DHT22;15385;51.088;6.572;2023-04-01T04:58:59;11.10;99.90
28075;DHT22;15385;51.088;6.572;2023-04-01T05:01:29;11.00;99.90
28075;DHT22;15385;51.088;6.572;2023-04-01T05:04:00;11.00;99.90
28075;DHT22;15385;51.088;6.572;2023-04-01T05:06:31;11.10;99.90
28075;DHT22;15385;51.088;6.572;2023-04-01T05:09:02;11.00;99.90
28075;DHT22;15385;51.088;6.572;2023-04-01T05:11:32;11.00;99.90
28075;DHT22;15385;51.088;6.572;2023-04-01T05:14:03;11.10;99.90
28075;DHT22;15385;51.088;6.572;2023-04-01T05:16:34;11.10;99.90
28075;DHT22;15385;51.088;6.572;2023-04-01T05:19:04;11.10;99.90
28075;DHT22;15385;51.088;6.572;2023-04-01T05:21:35;11.10;99.90
28075;DHT22;15385;51.088;6.572;2023-04-01T05:24:08;11.00;99.90
28075;DHT22;15385;51.088;6.572;2023-04-01T05:26:40;11.00;99.90
28075;DHT22;15385;51.088;6.572;2023-04-01T05:29:10;10.90;99.90
28075;DHT22;15385;51.088;6.572;2023-04-01T05:31:41;10.90;99.90
28075;DHT22;15385;51.088;6.572;2023-04-01T05:34:11;11.00;99.90
28075;DHT22;15385;51.088;6.572;2023-04-01T05:36:43;11.00;99.90
28075;DHT22;15385;51.088;6.572;2023-04-01T05:39:14;11.00;99.90
28075;DHT22;15385;51.088;6.572;2023-04-01T05:41:45;11.00;99.90
28075;DHT22;15385;51.088;6.572;2023-04-01T05:44:15;11.10;99.90
28075;DHT22;15385;51.088;6.572;2023-04-01T05:46:46;11.00;99.90
28075;DHT22;15385;51.088;6.572;2023-04-01T05:49:17;11.00;99.90
28075;DHT22;15385;51.088;6.572;2023-04-01T05:51:47;11.00;99.90
28075;DHT22;15385;51.088;6.572;2023-04-01T05:54:19;10.90;99.90
28075;DHT22;15385;51.088;6.572;2023-04-01T05:56:50;11.10;99.90
28075;DHT22;15385;51.088;6.572;2023-04-01T05:59:20;10.90;99.90
28075;DHT22;15385;51.088;6.572;2023-04-01T06:01:51;10.90;99.90
28075;DHT22;15385;51.088;6.572;2023-04-01T06:04:22;11.00;99.90
28075;DHT22;15385;51.088;6.572;2023-04-01T06:06:53;11.00;99.90
28075;DHT22;15385;51.088;6.572;2023-04-01T06:09:29;11.00;99.90
28075;DHT22;15385;51.088;6.572;2023-04-01T06:26:24;11.00;99.90
28075;DHT22;15385;51.088;6.572;2023-04-01T06:29:28;11.00;99.90
28075;DHT22;15385;51.088;6.572;2023-04-01T06:46:45;10.80;99.90
28075;DHT22;15385;51.088;6.572;2023-04-01T06:54:49;10.80;99.90
28075;DHT22;15385;51.088;6.572;2023-04-01T07:00:00;10.90;99.90
28075;DHT22;15385;51.088;6.572;2023-04-01T07:02:41;10.90;99.90
28075;DHT22;15385;51.088;6.572;2023-04-01T07:05:14;10.80;99.90
28075;DHT22;15385;51.088;6.572;2023-04-01T07:07:49;10.80;99.90
28075;DHT22;15385;51.088;6.572;2023-04-01T07:10:31;10.80;99.90
28075;DHT22;15385;51.088;6.572;2023-04-01T07:13:09;10.80;99.90
28075;DHT22;15385;51.088;6.572;2023-04-01T07:15:45;10.80;99.90
28075;DHT22;15385;51.088;6.572;2023-04-01T07:18:23;10.80;99.90
28075;DHT22;15385;51.088;6.572;2023-04-01T07:20:59;10.90;99.90
28075;DHT22;15385;51.088;6.572;2023-04-01T07:23:38;10.90;99.90
28075;DHT22;15385;51.088;6.572;2023-04-01T07:26:29;10.90;99.90
28075;DHT22;15385;51.088;6.572;2023-04-01T07:29:00;10.80;99.90
28075;DHT22;15385;51.088;6.572;2023-04-01T07:34:27;10.70;99.90
28075;DHT22;15385;51.088;6.572;2023-04-01T07:40:04;10.80;99.90
28075;DHT22;15385;51.088;6.572;2023-04-01T07:51:08;10.80;99.90
28075;DHT22;15385;51.088;6.572;2023-04-01T07:53:49;10.80;99.90
28075;DHT22;15385;51.088;6.572;2023-04-01T07:56:30;10.80;99.90
28075;DHT22;15385;51.088;6.572;2023-04-01T07:59:23;10.90;99.90
28075;DHT22;15385;51.088;6.572;2023-04-01T08:02:20;10.80;99.90
28075;DHT22;15385;51.088;6.572;2023-04-01T08:13:24;10.90;99.90
28075;DHT22;15385;51.088;6.572;2023-04-01T08:19:03;10.90;99.90
28075;DHT22;15385;51.088;6.572;2023-04-01T08:21:47;11.00;99.90
28075;DHT22;15385;51.088;6.572;2023-04-01T08:24:43;11.00;99.90
28075;DHT22;15385;51.088;6.572;2023-04-01T08:27:43;11.00;99.90
28075;DHT22;15385;51.088;6.572;2023-04-01T08:30:27;11.00;99.90
28075;DHT22;15385;51.088;6.572;2023-04-01T08:33:08;11.10;99.90
28075;DHT22;15385;51.088;6.572;2023-04-01T08:36:03;11.10;99.90
28075;DHT22;15385;51.088;6.572;2023-04-01T08:38:52;11.10;99.90
28075;DHT22;15385;51.088;6.572;2023-04-01T08:52:41;11.00;99.90
28075;DHT22;15385;51.088;6.572;2023-04-01T09:04:26;11.20;99.90
28075;DHT22;15385;51.088;6.572;2023-04-01T09:09:55;11.10;99.90
28075;DHT22;15385;51.088;6.572;2023-04-01T09:12:55;11.20;99.90
28075;DHT22;15385;51.088;6.572;2023-04-01T09:15:36;11.20;99.90
28075;DHT22;15385;51.088;6.572;2023-04-01T09:22:14;11.20;99.90
28075;DHT22;15385;51.088;6.572;2023-04-01T09:25:06;11.10;99.90
28075;DHT22;15385;51.088;6.572;2023-04-01T09:33:52;11.10;99.90
28075;DHT22;15385;51.088;6.572;2023-04-01T09:39:34;11.10;99.90
28075;DHT22;15385;51.088;6.572;2023-04-01T09:48:20;11.10;99.90
28075;DHT22;15385;51.088;6.572;2023-04-01T09:51:03;11.10;99.90
28075;DHT22;15385;51.088;6.572;2023-04-01T11:01:00;11.80;99.90
28075;DHT22;15385;51.088;6.572;2023-04-01T11:18:39;11.80;99.90
28075;DHT22;15385;51.088;6.572;2023-04-01T11:26:52;11.80;99.90
28075;DHT22;15385;51.088;6.572;2023-04-01T11:30:39;11.90;99.90
28075;DHT22;15385;51.088;6.572;2023-04-01T11:32:54;11.90;99.90
28075;DHT22;15385;51.088;6.572;2023-04-01T11:44:17;11.90;99.90
28075;DHT22;15385;51.088;6.572;2023-04-01T12:01:25;12.30;99.90
28075;DHT22;15385;51.088;6.572;2023-04-01T12:04:05;12.30;99.90
28075;DHT22;15385;51.088;6.572;2023-04-01T12:12:38;12.30;99.90
28075;DHT22;15385;51.088;6.572;2023-04-01T12:15:28;12.40;99.90
28075;DHT22;15385;51.088;6.572;2023-04-01T12:20:51;12.50;99.90
28075;DHT22;15385;51.088;6.572;2023-04-01T12:32:57;12.40;99.90
28075;DHT22;15385;51.088;6.572;2023-04-01T12:49:57;12.30;99.90
28075;DHT22;15385;51.088;6.572;2023-04-01T12:55:48;12.20;99.90
28075;DHT22;15385;51.088;6.572;2023-04-01T13:01:47;12.20;99.90
28075;DHT22;15385;51.088;6.572;2023-04-01T13:21:51;12.00;99.90
28075;DHT22;15385;51.088;6.572;2023-04-01T13:27:50;11.90;99.90
28075;DHT22;15385;51.088;6.572;2023-04-01T13:36:31;12.30;99.90
28075;DHT22;15385;51.088;6.572;2023-04-01T13:39:25;12.30;99.90
28075;DHT22;15385;51.088;6.572;2023-04-01T13:45:19;12.40;99.90
28075;DHT22;15385;51.088;6.572;2023-04-01T13:50:48;12.40;99.90
28075;DHT22;15385;51.088;6.572;2023-04-01T13:56:33;12.30;99.90
28075;DHT22;15385;51.088;6.572;2023-04-01T14:05:20;12.20;99.90
28075;DHT22;15385;51.088;6.572;2023-04-01T14:08:01;12.20;99.90
28075;DHT22;15385;51.088;6.572;2023-04-01T14:33:58;12.10;99.90
28075;DHT22;15385;51.088;6.572;2023-04-01T14:42:17;12.10;99.90
28075;DHT22;15385;51.088;6.572;2023-04-01T14:45:24;12.20;99.90
28075;DHT22;15385;51.088;6.572;2023-04-01T14:50:49;12.20;99.90
28075;DHT22;15385;51.088;6.572;2023-04-01T14:53:29;12.10;99.90
28075;DHT22;15385;51.088;6.572;2023-04-01T14:56:02;12.00;99.90
28075;DHT22;15385;51.088;6.572;2023-04-01T14:58:44;12.10;99.90
28075;DHT22;15385;51.088;6.572;2023-04-01T15:01:37;12.30;99.90
28075;DHT22;15385;51.088;6.572;2023-04-01T15:07:29;12.20;99.90
28075;DHT22;15385;51.088;6.572;2023-04-01T15:13:10;12.20;99.90
28075;DHT22;15385;51.088;6.572;2023-04-01T15:25:05;13.10;99.90
28075;DHT22;15385;51.088;6.572;2023-04-01T15:31:02;12.60;99.90
28075;DHT22;15385;51.088;6.572;2023-04-01T15:41:42;12.40;99.90
28075;DHT22;15385;51.088;6.572;2023-04-01T15:50:03;12.30;99.90
28075;DHT22;15385;51.088;6.572;2023-04-01T16:00:30;12.20;99.90
28075;DHT22;15385;51.088;6.572;2023-04-01T16:11:32;12.40;99.90
28075;DHT22;15385;51.088;6.572;2023-04-01T16:22:22;12.10;99.90
28075;DHT22;15385;51.088;6.572;2023-04-01T16:31:10;12.00;99.90
28075;DHT22;15385;51.088;6.572;2023-04-01T16:33:48;12.00;99.90
28075;DHT22;15385;51.088;6.572;2023-04-01T16:36:41;12.00;99.90
28075;DHT22;15385;51.088;6.572;2023-04-01T16:48:17;11.80;99.90
28075;DHT22;15385;51.088;6.572;2023-04-01T16:50:58;11.80;99.90
28075;DHT22;15385;51.088;6.572;2023-04-01T16:56:24;11.80;99.90
28075;DHT22;15385;51.088;6.572;2023-04-01T17:01:27;11.80;99.90
28075;DHT22;15385;51.088;6.572;2023-04-01T17:04:07;11.70;99.90
28075;DHT22;15385;51.088;6.572;2023-04-01T17:07:01;11.70;99.90
28075;DHT22;15385;51.088;6.572;2023-04-01T17:18:51;11.50;99.90
28075;DHT22;15385;51.088;6.572;2023-04-01T17:24:39;11.50;99.90
28075;DHT22;15385;51.088;6.572;2023-04-01T17:27:39;11.50;99.90
28075;DHT22;15385;51.088;6.572;2023-04-01T17:41:31;11.40;99.90
28075;DHT22;15385;51.088;6.572;2023-04-01T17:58:28;11.20;99.90
28075;DHT22;15385;51.088;6.572;2023-04-01T18:06:19;11.30;99.90
28075;DHT22;15385;51.088;6.572;2023-04-01T18:25:49;11.30;99.90
28075;DHT22;15385;51.088;6.572;2023-04-01T18:31:15;11.20;99.90
28075;DHT22;15385;51.088;6.572;2023-04-01T18:37:01;11.20;99.90
28075;DHT22;15385;51.088;6.572;2023-04-01T18:39:49;11.20;99.90
28075;DHT22;15385;51.088;6.572;2023-04-01T18:45:31;11.20;99.90
28075;DHT22;15385;51.088;6.572;2023-04-01T18:48:11;11.20;99.90
28075;DHT22;15385;51.088;6.572;2023-04-01T18:50:52;11.10;99.90
28075;DHT22;15385;51.088;6.572;2023-04-01T18:56:08;11.10;99.90
28075;DHT22;15385;51.088;6.572;2023-04-01T19:15:50;11.10;99.90
28075;DHT22;15385;51.088;6.572;2023-04-01T19:21:28;10.90;99.90
28075;DHT22;15385;51.088;6.572;2023-04-01T19:37:50;10.90;99.90
28075;DHT22;15385;51.088;6.572;2023-04-01T19:49:02;11.00;99.90
28075;DHT22;15385;51.088;6.572;2023-04-01T19:55:00;10.80;99.90
28075;DHT22;15385;51.088;6.572;2023-04-01T19:57:38;10.90;99.90
28075;DHT22;15385;51.088;6.572;2023-04-01T20:00:30;10.90;99.90
28075;DHT22;15385;51.088;6.572;2023-04-01T20:06:23;10.90;99.90
28075;DHT22;15385;51.088;6.572;2023-04-01T20:25:37;10.90;99.90
28075;DHT22;15385;51.088;6.572;2023-04-01T20:42:55;11.00;99.90
28075;DHT22;15385;51.088;6.572;2023-04-01T20:45:55;11.00;99.90
28075;DHT22;15385;51.088;6.572;2023-04-01T20:51:12;10.90;99.90
28075;DHT22;15385;51.088;6.572;2023-04-01T20:57:24;11.00;99.90
28075;DHT22;15385;51.088;6.572;2023-04-01T21:02:47;11.10;99.90
28075;DHT22;15385;51.088;6.572;2023-04-01T21:10:49;11.40;99.90
28075;DHT22;15385;51.088;6.572;2023-04-01T21:13:41;11.40;99.90
28075;DHT22;15385;51.088;6.572;2023-04-01T21:16:31;11.40;99.90
28075;DHT22;15385;51.088;6.572;2023-04-01T21:30:54;11.50;99.90
28075;DHT22;15385;51.088;6.572;2023-04-01T21:36:40;11.40;99.90
28075;DHT22;15385;51.088;6.572;2023-04-01T21:45:01;11.30;99.90
28075;DHT22;15385;51.088;6.572;2023-04-01T22:17:00;11.10;99.90
28075;DHT22;15385;51.088;6.572;2023-04-01T22:28:26;11.00;99.90
28075;DHT22;15385;51.088;6.572;2023-04-01T22:31:02;11.00;99.90
28075;DHT22;15385;51.088;6.572;2023-04-01T22:34:10;10.90;99.90
28075;DHT22;15385;51.088;6.572;2023-04-01T22:42:46;10.80;99.90
28075;DHT22;15385;51.088;6.572;2023-04-01T22:45:39;10.80;99.90
28075;DHT22;15385;51.088;6.572;2023-04-01T22:51:18;10.70;99.90
28075;DHT22;15385;51.088;6.572;2023-04-01T22:54:02;10.70;99.90
28075;DHT22;15385;51.088;6.572;2023-04-01T22:56:37;10.60;99.90
28075;DHT22;15385;51.088;6.572;2023-04-01T23:02:20;10.50;99.90
28075;DHT22;15385;51.088;6.572;2023-04-01T23:04:55;10.50;99.90
28075;DHT22;15385;51.088;6.572;2023-04-01T23:07:52;10.50;99.90
28075;DHT22;15385;51.088;6.572;2023-04-01T23:10:39;10.50;99.90
28075;DHT22;15385;51.088;6.572;2023-04-01T23:13:19;10.50;99.90
28075;DHT22;15385;51.088;6.572;2023-04-01T23:15:52;10.50;99.90
28075;DHT22;15385;51.088;6.572;2023-04-01T23:21:51;10.50;99.90
28075;DHT22;15385;51.088;6.572;2023-04-01T23:24:35;10.40;99.90
28075;DHT22;15385;51.088;6.572;2023-04-01T23:27:10;10.40;99.90
28075;DHT22;15385;51.088;6.572;2023-04-01T23:29:42;10.30;99.90
28075;DHT22;15385;51.088;6.572;2023-04-01T23:32:18;10.20;99.90
28075;DHT22;15385;51.088;6.572;2023-04-01T23:34:52;10.10;99.90
28075;DHT22;15385;51.088;6.572;2023-04-01T23:37:24;10.20;99.90
28075;DHT22;15385;51.088;6.572;2023-04-01T23:39:57;10.00;99.90
28075;DHT22;15385;51.088;6.572;2023-04-01T23:42:37;10.00;99.90
28075;DHT22;15385;51.088;6.572;2023-04-01T23:45:13;10.10;99.90
28075;DHT22;15385;51.088;6.572;2023-04-01T23:47:48;10.10;99.90
28075;DHT22;15385;51.088;6.572;2023-04-01T23:50:25;10.10;99.90
28075;DHT22;15385;51.088;6.572;2023-04-01T23:53:18;10.10;99.90
28075;DHT22;15385;51.088;6.572;2023-04-01T23:55:51;10.10;99.90
